成田

ずぶ濡れになりながら、1タミのデッキから意地でカメコ敢行。<馬鹿
TWRが到着機にさかんにブレーキの設定聞いて後続機に知らせてるのが珍しく興味深かったり。

・・・さすがニコンだ。ちょっと雨かぶったぐらいじゃ何ともないぜ。<馬鹿^2

で、それでも早めに宿へ退散してみたら部屋から16Rエンドがぎりぎり見えるから、ATC聞きながらまったり。夕方になってウインドシアのcautionもビシバシ出始めたので、気になって調べてみた。

RJAA 270732Z 01031G41KT 2400 +SHRA BR FEW005 BKN008 BKN015 16/15 Q0995 RMK 1ST005 5ST008 7CU015 A2940 P/FR

( ゚∀゚)アハハ八八ノヽノヽノヽノ \ / \/ \

こりゃどっちみち飲み会どころじゃなかったね。(´・ω・`)>各位

コメントを残す

このサイトはスパムを低減するために Akismet を使っています。コメントデータの処理方法の詳細はこちらをご覧ください